Terminal Aerodrome Forecast
Issued by NWS

Home | Current Version | Previous Version | Text Only | Print | Product List | Glossary Off
Versions: 1 2 3 4 5 6 7 8 9 10 11 12 13 14 15

000
FTUS43 KMPX 220941 AAA
TAFAXN
TAF AMD
KAXN 220941Z 2210/2306 22007KT P6SM FEW025 SCT060 OVC100
      TEMPO 2211/2213 5SM -TSRA BR BKN040CB
     FM221300 31009KT P6SM SCT035
     FM221700 31014G23KT P6SM SCT050
     FM222300 33009KT P6SM SKC=

USA.gov is the U.S. government's official web portal to all federal, state and local government web resources and services.